sensor_id;sensor_type;location;lat;lon;timestamp;P1;durP1;ratioP1;P2;durP2;ratioP2
6610;SDS011;44111;46.692;13.664;2022-10-22T08:01:34;12.63;;;10.33;;
6610;SDS011;44111;46.692;13.664;2022-10-22T08:04:01;16.20;;;10.63;;
6610;SDS011;44111;46.692;13.664;2022-10-22T08:06:27;12.77;;;9.70;;
6610;SDS011;44111;46.692;13.664;2022-10-22T08:08:54;11.53;;;9.77;;
6610;SDS011;44111;46.692;13.664;2022-10-22T08:11:21;10.73;;;9.57;;
6610;SDS011;44111;46.692;13.664;2022-10-22T08:13:48;10.63;;;9.13;;
6610;SDS011;44111;46.692;13.664;2022-10-22T08:16:15;13.57;;;10.67;;
6610;SDS011;44111;46.692;13.664;2022-10-22T08:18:43;13.13;;;9.10;;
6610;SDS011;44111;46.692;13.664;2022-10-22T08:21:10;11.33;;;9.77;;
6610;SDS011;44111;46.692;13.664;2022-10-22T08:23:37;10.30;;;9.30;;
6610;SDS011;44111;46.692;13.664;2022-10-22T08:26:04;9.70;;;8.70;;
6610;SDS011;44111;46.692;13.664;2022-10-22T08:28:31;10.03;;;7.90;;
6610;SDS011;44111;46.692;13.664;2022-10-22T08:31:01;8.97;;;8.07;;
6610;SDS011;44111;46.692;13.664;2022-10-22T08:33:28;10.30;;;8.40;;
6610;SDS011;44111;46.692;13.664;2022-10-22T08:35:56;8.87;;;7.23;;
6610;SDS011;44111;46.692;13.664;2022-10-22T08:38:23;8.60;;;7.20;;
6610;SDS011;44111;46.692;13.664;2022-10-22T08:40:50;9.17;;;7.50;;
6610;SDS011;44111;46.692;13.664;2022-10-22T08:43:40;7.17;;;6.23;;
6610;SDS011;44111;46.692;13.664;2022-10-22T08:46:31;7.87;;;6.33;;
6610;SDS011;44111;46.692;13.664;2022-10-22T10:50:54;3.43;;;3.10;;
6610;SDS011;44111;46.692;13.664;2022-10-22T10:53:28;3.43;;;3.13;;
6610;SDS011;44111;46.692;13.664;2022-10-22T10:56:03;2.80;;;2.53;;
6610;SDS011;44111;46.692;13.664;2022-10-22T10:58:37;4.80;;;2.80;;
6610;SDS011;44111;46.692;13.664;2022-10-22T11:01:11;3.53;;;3.00;;
6610;SDS011;44111;46.692;13.664;2022-10-22T11:03:49;3.30;;;3.00;;
6610;SDS011;44111;46.692;13.664;2022-10-22T11:06:26;3.87;;;3.10;;
6610;SDS011;44111;46.692;13.664;2022-10-22T11:08:56;4.70;;;3.30;;
6610;SDS011;44111;46.692;13.664;2022-10-22T11:11:28;4.33;;;3.07;;
6610;SDS011;44111;46.692;13.664;2022-10-22T11:13:58;2.90;;;2.60;;
6610;SDS011;44111;46.692;13.664;2022-10-22T11:16:30;3.20;;;2.90;;
6610;SDS011;44111;46.692;13.664;2022-10-22T11:19:00;4.87;;;3.40;;
6610;SDS011;44111;46.692;13.664;2022-10-22T11:21:31;3.60;;;3.30;;
6610;SDS011;44111;46.692;13.664;2022-10-22T11:24:02;3.63;;;3.23;;
6610;SDS011;44111;46.692;13.664;2022-10-22T11:26:35;3.97;;;3.00;;
6610;SDS011;44111;46.692;13.664;2022-10-22T11:29:05;4.43;;;3.23;;
6610;SDS011;44111;46.692;13.664;2022-10-22T11:31:37;3.30;;;3.00;;
6610;SDS011;44111;46.692;13.664;2022-10-22T11:34:05;5.27;;;3.20;;
6610;SDS011;44111;46.692;13.664;2022-10-22T11:36:39;4.10;;;3.03;;
6610;SDS011;44111;46.692;13.664;2022-10-22T11:39:06;5.43;;;4.67;;
6610;SDS011;44111;46.692;13.664;2022-10-22T11:41:43;3.97;;;3.57;;
6610;SDS011;44111;46.692;13.664;2022-10-22T11:44:20;4.60;;;4.20;;
6610;SDS011;44111;46.692;13.664;2022-10-22T11:46:53;5.10;;;4.20;;
6610;SDS011;44111;46.692;13.664;2022-10-22T11:49:23;4.30;;;3.63;;
6610;SDS011;44111;46.692;13.664;2022-10-22T11:52:05;4.00;;;3.60;;
6610;SDS011;44111;46.692;13.664;2022-10-22T11:54:48;4.03;;;3.60;;
6610;SDS011;44111;46.692;13.664;2022-10-22T11:57:18;3.87;;;3.17;;
6610;SDS011;44111;46.692;13.664;2022-10-22T11:59:49;2.57;;;2.37;;
6610;SDS011;44111;46.692;13.664;2022-10-22T12:02:22;4.00;;;3.60;;
6610;SDS011;44111;46.692;13.664;2022-10-22T12:05:16;3.93;;;3.53;;
6610;SDS011;44111;46.692;13.664;2022-10-22T12:07:50;2.87;;;2.57;;
6610;SDS011;44111;46.692;13.664;2022-10-22T12:10:21;3.53;;;2.63;;
6610;SDS011;44111;46.692;13.664;2022-10-22T12:12:51;3.10;;;2.80;;
6610;SDS011;44111;46.692;13.664;2022-10-22T12:15:22;3.00;;;2.70;;
6610;SDS011;44111;46.692;13.664;2022-10-22T12:17:50;2.90;;;2.70;;
6610;SDS011;44111;46.692;13.664;2022-10-22T12:20:19;2.77;;;2.57;;
6610;SDS011;44111;46.692;13.664;2022-10-22T12:22:51;3.57;;;2.60;;
6610;SDS011;44111;46.692;13.664;2022-10-22T12:25:20;7.63;;;6.77;;
6610;SDS011;44111;46.692;13.664;2022-10-22T12:27:49;6.27;;;5.67;;
6610;SDS011;44111;46.692;13.664;2022-10-22T12:30:19;3.90;;;3.60;;
6610;SDS011;44111;46.692;13.664;2022-10-22T12:32:49;3.60;;;3.30;;
6610;SDS011;44111;46.692;13.664;2022-10-22T12:35:17;3.83;;;3.43;;
6610;SDS011;44111;46.692;13.664;2022-10-22T12:37:48;3.57;;;3.10;;
6610;SDS011;44111;46.692;13.664;2022-10-22T12:40:16;3.33;;;3.03;;
6610;SDS011;44111;46.692;13.664;2022-10-22T12:42:51;3.23;;;2.93;;
6610;SDS011;44111;46.692;13.664;2022-10-22T12:45:21;3.77;;;2.93;;
6610;SDS011;44111;46.692;13.664;2022-10-22T12:47:49;3.53;;;3.07;;
6610;SDS011;44111;46.692;13.664;2022-10-22T12:50:17;4.20;;;3.80;;
6610;SDS011;44111;46.692;13.664;2022-10-22T12:52:48;5.20;;;4.20;;
6610;SDS011;44111;46.692;13.664;2022-10-22T12:55:16;5.03;;;4.40;;
6610;SDS011;44111;46.692;13.664;2022-10-22T12:57:45;5.27;;;4.33;;
6610;SDS011;44111;46.692;13.664;2022-10-22T13:00:19;5.00;;;4.50;;
6610;SDS011;44111;46.692;13.664;2022-10-22T13:02:48;5.43;;;4.63;;
6610;SDS011;44111;46.692;13.664;2022-10-22T13:05:19;5.17;;;4.43;;
6610;SDS011;44111;46.692;13.664;2022-10-22T13:07:50;4.40;;;3.63;;
6610;SDS011;44111;46.692;13.664;2022-10-22T13:10:19;4.17;;;3.87;;
6610;SDS011;44111;46.692;13.664;2022-10-22T13:12:49;4.00;;;3.60;;
6610;SDS011;44111;46.692;13.664;2022-10-22T13:15:18;3.20;;;2.90;;
6610;SDS011;44111;46.692;13.664;2022-10-22T13:17:46;4.67;;;3.70;;
6610;SDS011;44111;46.692;13.664;2022-10-22T13:20:15;5.03;;;4.53;;
6610;SDS011;44111;46.692;13.664;2022-10-22T13:22:55;6.73;;;4.80;;
6610;SDS011;44111;46.692;13.664;2022-10-22T13:25:25;5.03;;;4.53;;
6610;SDS011;44111;46.692;13.664;2022-10-22T13:27:53;4.20;;;3.80;;
6610;SDS011;44111;46.692;13.664;2022-10-22T13:30:22;8.23;;;7.43;;
6610;SDS011;44111;46.692;13.664;2022-10-22T13:32:50;6.10;;;5.50;;
6610;SDS011;44111;46.692;13.664;2022-10-22T13:35:19;7.90;;;5.87;;
6610;SDS011;44111;46.692;13.664;2022-10-22T13:37:49;6.73;;;6.13;;
6610;SDS011;44111;46.692;13.664;2022-10-22T13:40:17;4.73;;;4.20;;
6610;SDS011;44111;46.692;13.664;2022-10-22T13:42:44;8.03;;;4.30;;
6610;SDS011;44111;46.692;13.664;2022-10-22T13:45:11;4.53;;;4.13;;
6610;SDS011;44111;46.692;13.664;2022-10-22T13:47:38;5.07;;;4.57;;
6610;SDS011;44111;46.692;13.664;2022-10-22T13:50:09;6.37;;;5.10;;
6610;SDS011;44111;46.692;13.664;2022-10-22T13:52:39;6.67;;;5.97;;
6610;SDS011;44111;46.692;13.664;2022-10-22T13:55:15;7.50;;;6.53;;
6610;SDS011;44111;46.692;13.664;2022-10-22T13:57:44;7.40;;;6.70;;
6610;SDS011;44111;46.692;13.664;2022-10-22T14:00:13;4.30;;;3.90;;
6610;SDS011;44111;46.692;13.664;2022-10-22T14:49:19;7.97;;;7.17;;
6610;SDS011;44111;46.692;13.664;2022-10-22T14:51:46;2.70;;;2.50;;
6610;SDS011;44111;46.692;13.664;2022-10-22T14:54:13;2.43;;;2.23;;
6610;SDS011;44111;46.692;13.664;2022-10-22T14:56:41;2.30;;;2.10;;
6610;SDS011;44111;46.692;13.664;2022-10-22T14:59:07;2.97;;;2.50;;
6610;SDS011;44111;46.692;13.664;2022-10-22T15:01:34;2.60;;;2.40;;
6610;SDS011;44111;46.692;13.664;2022-10-22T15:04:03;2.70;;;2.23;;
6610;SDS011;44111;46.692;13.664;2022-10-22T15:06:31;2.30;;;1.90;;
6610;SDS011;44111;46.692;13.664;2022-10-22T15:08:58;2.23;;;2.13;;
6610;SDS011;44111;46.692;13.664;2022-10-22T15:11:25;3.37;;;2.40;;
6610;SDS011;44111;46.692;13.664;2022-10-22T15:13:52;2.83;;;2.30;;
6610;SDS011;44111;46.692;13.664;2022-10-22T15:16:19;2.47;;;2.27;;
6610;SDS011;44111;46.692;13.664;2022-10-22T15:18:46;2.50;;;2.30;;
6610;SDS011;44111;46.692;13.664;2022-10-22T15:21:13;2.40;;;2.20;;
6610;SDS011;44111;46.692;13.664;2022-10-22T15:23:42;3.60;;;2.10;;
6610;SDS011;44111;46.692;13.664;2022-10-22T15:26:09;2.53;;;2.10;;
6610;SDS011;44111;46.692;13.664;2022-10-22T15:28:37;2.83;;;2.30;;
6610;SDS011;44111;46.692;13.664;2022-10-22T15:31:05;3.23;;;2.40;;
6610;SDS011;44111;46.692;13.664;2022-10-22T15:33:33;3.87;;;2.70;;
6610;SDS011;44111;46.692;13.664;2022-10-22T15:36:08;3.97;;;2.50;;
6610;SDS011;44111;46.692;13.664;2022-10-22T15:38:35;4.10;;;2.43;;
6610;SDS011;44111;46.692;13.664;2022-10-22T15:41:04;3.50;;;2.67;;
6610;SDS011;44111;46.692;13.664;2022-10-22T15:43:34;3.87;;;2.43;;
6610;SDS011;44111;46.692;13.664;2022-10-22T15:46:07;14.43;;;3.57;;
6610;SDS011;44111;46.692;13.664;2022-10-22T15:48:36;1.30;;;1.20;;
6610;SDS011;44111;46.692;13.664;2022-10-22T15:51:07;2.17;;;1.93;;
6610;SDS011;44111;46.692;13.664;2022-10-22T15:53:34;3.00;;;1.90;;
6610;SDS011;44111;46.692;13.664;2022-10-22T15:56:01;2.40;;;2.20;;
6610;SDS011;44111;46.692;13.664;2022-10-22T15:58:30;3.50;;;1.97;;
6610;SDS011;44111;46.692;13.664;2022-10-22T16:13:18;2.13;;;1.30;;
6610;SDS011;44111;46.692;13.664;2022-10-22T16:15:48;2.10;;;1.90;;
6610;SDS011;44111;46.692;13.664;2022-10-22T16:18:14;1.40;;;1.30;;
6610;SDS011;44111;46.692;13.664;2022-10-22T16:20:41;1.93;;;1.57;;
6610;SDS011;44111;46.692;13.664;2022-10-22T16:23:08;2.77;;;1.50;;
6610;SDS011;44111;46.692;13.664;2022-10-22T16:25:38;2.67;;;1.47;;
6610;SDS011;44111;46.692;13.664;2022-10-22T16:28:05;2.93;;;1.50;;
6610;SDS011;44111;46.692;13.664;2022-10-22T16:30:34;1.67;;;1.50;;
6610;SDS011;44111;46.692;13.664;2022-10-22T16:33:02;2.50;;;2.10;;
6610;SDS011;44111;46.692;13.664;2022-10-22T16:35:29;2.90;;;2.43;;
6610;SDS011;44111;46.692;13.664;2022-10-22T16:37:56;2.00;;;1.90;;
6610;SDS011;44111;46.692;13.664;2022-10-22T16:40:23;3.20;;;2.90;;
6610;SDS011;44111;46.692;13.664;2022-10-22T16:42:50;2.60;;;2.40;;
6610;SDS011;44111;46.692;13.664;2022-10-22T16:45:17;2.37;;;2.17;;
6610;SDS011;44111;46.692;13.664;2022-10-22T16:47:45;4.17;;;2.70;;
6610;SDS011;44111;46.692;13.664;2022-10-22T16:50:13;2.80;;;2.60;;
6610;SDS011;44111;46.692;13.664;2022-10-22T16:52:40;2.80;;;2.60;;
6610;SDS011;44111;46.692;13.664;2022-10-22T16:55:07;3.60;;;2.73;;
6610;SDS011;44111;46.692;13.664;2022-10-22T16:57:34;2.90;;;2.10;;
6610;SDS011;44111;46.692;13.664;2022-10-22T17:00:01;2.57;;;2.10;;
6610;SDS011;44111;46.692;13.664;2022-10-22T17:02:28;2.00;;;1.80;;
6610;SDS011;44111;46.692;13.664;2022-10-22T17:04:57;5.77;;;2.10;;
6610;SDS011;44111;46.692;13.664;2022-10-22T17:07:23;3.97;;;2.67;;
6610;SDS011;44111;46.692;13.664;2022-10-22T17:09:50;5.93;;;3.73;;
6610;SDS011;44111;46.692;13.664;2022-10-22T17:12:17;8.70;;;6.37;;
6610;SDS011;44111;46.692;13.664;2022-10-22T17:14:44;7.03;;;5.70;;
6610;SDS011;44111;46.692;13.664;2022-10-22T17:17:10;4.50;;;4.10;;
6610;SDS011;44111;46.692;13.664;2022-10-22T17:19:37;4.77;;;4.20;;
6610;SDS011;44111;46.692;13.664;2022-10-22T17:22:05;5.97;;;4.10;;
6610;SDS011;44111;46.692;13.664;2022-10-22T17:24:32;7.77;;;4.93;;
6610;SDS011;44111;46.692;13.664;2022-10-22T17:26:59;6.83;;;4.87;;
6610;SDS011;44111;46.692;13.664;2022-10-22T17:29:26;6.60;;;4.57;;
6610;SDS011;44111;46.692;13.664;2022-10-22T17:31:53;3.73;;;3.33;;
6610;SDS011;44111;46.692;13.664;2022-10-22T17:34:20;6.83;;;5.07;;
6610;SDS011;44111;46.692;13.664;2022-10-22T17:36:47;3.53;;;2.97;;
6610;SDS011;44111;46.692;13.664;2022-10-22T17:39:16;3.23;;;2.17;;
6610;SDS011;44111;46.692;13.664;2022-10-22T17:41:43;2.60;;;2.40;;
6610;SDS011;44111;46.692;13.664;2022-10-22T17:44:11;3.83;;;1.30;;
6610;SDS011;44111;46.692;13.664;2022-10-22T17:46:38;2.93;;;2.30;;
6610;SDS011;44111;46.692;13.664;2022-10-22T17:49:08;4.17;;;2.40;;
6610;SDS011;44111;46.692;13.664;2022-10-22T17:51:39;1.23;;;1.20;;
6610;SDS011;44111;46.692;13.664;2022-10-22T17:54:05;1.97;;;1.37;;
6610;SDS011;44111;46.692;13.664;2022-10-22T17:56:34;2.40;;;1.30;;
6610;SDS011;44111;46.692;13.664;2022-10-22T17:59:01;1.33;;;1.23;;
6610;SDS011;44111;46.692;13.664;2022-10-22T18:01:28;2.30;;;1.40;;
6610;SDS011;44111;46.692;13.664;2022-10-22T18:03:57;1.50;;;1.40;;
6610;SDS011;44111;46.692;13.664;2022-10-22T18:06:27;1.47;;;1.37;;
6610;SDS011;44111;46.692;13.664;2022-10-22T18:08:54;1.60;;;1.50;;
6610;SDS011;44111;46.692;13.664;2022-10-22T18:11:21;5.70;;;2.20;;
6610;SDS011;44111;46.692;13.664;2022-10-22T18:13:52;2.70;;;2.50;;
6610;SDS011;44111;46.692;13.664;2022-10-22T18:16:20;3.47;;;1.77;;
6610;SDS011;44111;46.692;13.664;2022-10-22T18:18:47;3.43;;;1.50;;
6610;SDS011;44111;46.692;13.664;2022-10-22T18:21:15;2.17;;;1.60;;
6610;SDS011;44111;46.692;13.664;2022-10-22T18:23:42;2.10;;;1.50;;
6610;SDS011;44111;46.692;13.664;2022-10-22T18:26:09;1.33;;;1.30;;
6610;SDS011;44111;46.692;13.664;2022-10-22T18:28:36;3.27;;;1.20;;
6610;SDS011;44111;46.692;13.664;2022-10-22T18:31:05;1.57;;;1.40;;
6610;SDS011;44111;46.692;13.664;2022-10-22T18:33:34;1.70;;;1.60;;
6610;SDS011;44111;46.692;13.664;2022-10-22T18:36:02;1.40;;;1.30;;
6610;SDS011;44111;46.692;13.664;2022-10-22T18:38:30;1.40;;;1.30;;
6610;SDS011;44111;46.692;13.664;2022-10-22T18:40:57;1.20;;;1.10;;
6610;SDS011;44111;46.692;13.664;2022-10-22T18:43:24;1.20;;;1.10;;
6610;SDS011;44111;46.692;13.664;2022-10-22T18:45:51;3.43;;;1.53;;
6610;SDS011;44111;46.692;13.664;2022-10-22T18:48:19;3.47;;;1.47;;
6610;SDS011;44111;46.692;13.664;2022-10-22T18:50:47;1.93;;;1.27;;
6610;SDS011;44111;46.692;13.664;2022-10-22T18:53:24;1.33;;;1.10;;
6610;SDS011;44111;46.692;13.664;2022-10-22T18:55:50;0.90;;;0.90;;
6610;SDS011;44111;46.692;13.664;2022-10-22T18:58:17;2.10;;;1.50;;
6610;SDS011;44111;46.692;13.664;2022-10-22T19:00:44;3.30;;;1.43;;
6610;SDS011;44111;46.692;13.664;2022-10-22T19:03:11;1.50;;;1.40;;
6610;SDS011;44111;46.692;13.664;2022-10-22T19:05:44;1.77;;;1.60;;
6610;SDS011;44111;46.692;13.664;2022-10-22T19:08:11;10.10;;;9.10;;
6610;SDS011;44111;46.692;13.664;2022-10-22T19:10:38;9.77;;;8.77;;
6610;SDS011;44111;46.692;13.664;2022-10-22T19:13:05;6.23;;;5.60;;
6610;SDS011;44111;46.692;13.664;2022-10-22T19:15:32;5.90;;;4.23;;
6610;SDS011;44111;46.692;13.664;2022-10-22T19:17:59;4.37;;;3.97;;
6610;SDS011;44111;46.692;13.664;2022-10-22T19:20:25;3.63;;;3.33;;
6610;SDS011;44111;46.692;13.664;2022-10-22T19:22:54;4.47;;;3.40;;
6610;SDS011;44111;46.692;13.664;2022-10-22T19:25:21;4.70;;;3.20;;
6610;SDS011;44111;46.692;13.664;2022-10-22T19:42:32;1.80;;;1.70;;
6610;SDS011;44111;46.692;13.664;2022-10-22T19:44:59;1.67;;;1.50;;
6610;SDS011;44111;46.692;13.664;2022-10-22T19:47:26;1.60;;;1.50;;
6610;SDS011;44111;46.692;13.664;2022-10-22T19:49:53;1.47;;;1.37;;
6610;SDS011;44111;46.692;13.664;2022-10-22T19:52:20;2.30;;;2.10;;
6610;SDS011;44111;46.692;13.664;2022-10-22T19:54:47;4.27;;;2.00;;
6610;SDS011;44111;46.692;13.664;2022-10-22T19:57:16;1.40;;;1.30;;
6610;SDS011;44111;46.692;13.664;2022-10-22T19:59:43;2.53;;;1.40;;
6610;SDS011;44111;46.692;13.664;2022-10-22T22:04:44;1.20;;;1.10;;
6610;SDS011;44111;46.692;13.664;2022-10-22T22:07:11;1.10;;;1.00;;
6610;SDS011;44111;46.692;13.664;2022-10-22T22:09:38;0.93;;;0.93;;
6610;SDS011;44111;46.692;13.664;2022-10-22T22:12:04;1.20;;;1.20;;
6610;SDS011;44111;46.692;13.664;2022-10-22T22:14:33;3.33;;;1.13;;
6610;SDS011;44111;46.692;13.664;2022-10-22T22:17:00;2.93;;;1.20;;
6610;SDS011;44111;46.692;13.664;2022-10-22T22:53:46;1.33;;;1.23;;
6610;SDS011;44111;46.692;13.664;2022-10-22T22:56:14;2.57;;;1.23;;
6610;SDS011;44111;46.692;13.664;2022-10-22T22:58:42;1.40;;;1.30;;
6610;SDS011;44111;46.692;13.664;2022-10-22T23:01:10;1.90;;;1.30;;
6610;SDS011;44111;46.692;13.664;2022-10-22T23:03:41;1.30;;;1.20;;
6610;SDS011;44111;46.692;13.664;2022-10-22T23:06:10;3.90;;;1.57;;
6610;SDS011;44111;46.692;13.664;2022-10-22T23:08:38;3.13;;;1.30;;
6610;SDS011;44111;46.692;13.664;2022-10-22T23:11:05;1.40;;;1.30;;
6610;SDS011;44111;46.692;13.664;2022-10-22T23:13:34;3.33;;;1.83;;
6610;SDS011;44111;46.692;13.664;2022-10-22T23:16:03;2.67;;;1.50;;
6610;SDS011;44111;46.692;13.664;2022-10-22T23:18:31;2.50;;;1.80;;
6610;SDS011;44111;46.692;13.664;2022-10-22T23:21:01;2.00;;;1.70;;
6610;SDS011;44111;46.692;13.664;2022-10-22T23:23:31;2.50;;;1.47;;
6610;SDS011;44111;46.692;13.664;2022-10-22T23:25:58;1.57;;;1.47;;
6610;SDS011;44111;46.692;13.664;2022-10-22T23:28:25;1.30;;;1.20;;
6610;SDS011;44111;46.692;13.664;2022-10-22T23:30:52;1.63;;;1.10;;
6610;SDS011;44111;46.692;13.664;2022-10-22T23:33:19;4.43;;;1.20;;
6610;SDS011;44111;46.692;13.664;2022-10-22T23:35:46;2.87;;;1.13;;
6610;SDS011;44111;46.692;13.664;2022-10-22T23:38:13;4.90;;;1.23;;
6610;SDS011;44111;46.692;13.664;2022-10-22T23:40:41;1.53;;;1.23;;
6610;SDS011;44111;46.692;13.664;2022-10-22T23:43:08;1.40;;;1.10;;
6610;SDS011;44111;46.692;13.664;2022-10-22T23:45:35;1.17;;;1.17;;
6610;SDS011;44111;46.692;13.664;2022-10-22T23:48:02;1.37;;;1.27;;
6610;SDS011;44111;46.692;13.664;2022-10-22T23:50:29;3.10;;;1.40;;
6610;SDS011;44111;46.692;13.664;2022-10-22T23:52:56;1.50;;;1.40;;
6610;SDS011;44111;46.692;13.664;2022-10-22T23:55:22;4.60;;;1.57;;
6610;SDS011;44111;46.692;13.664;2022-10-22T23:57:51;1.50;;;1.27;;
